Time;durP1;ratioP1;P1;durP2;ratioP2;P2;SDS_P1;SDS_P2;PMS_P1;PMS_P2;Temp;Humidity;BMP_temperature;BMP_pressure;BME280_temperature;BME280_humidity;BME280_pressure;Samples;Min_cycle;Max_cycle;Signal;HPM_P1;HPM_P2
2021/05/30 00:01:26;;;;;;;15.83;12.23;;;;;;;;;;5116771;28;20442;-73
2021/05/30 00:03:53;;;;;;;14.90;13.07;;;;;;;;;;5116667;28;20449;-73
2021/05/30 00:06:20;;;;;;;15.40;12.10;;;;;;;;;;5116584;28;21001;-73
2021/05/30 00:08:46;;;;;;;19.23;13.07;;;;;;;;;;5117244;28;20482;-74
2021/05/30 00:11:13;;;;;;;12.30;11.00;;;;;;;;;;5116988;28;20438;-74
2021/05/30 00:13:40;;;;;;;15.67;12.80;;;;;;;;;;5116839;28;20494;-74
2021/05/30 00:16:07;;;;;;;20.23;15.13;;;;;;;;;;5116887;28;20453;-74
2021/05/30 00:18:34;;;;;;;16.17;13.33;;;;;;;;;;5116490;28;20935;-73
2021/05/30 00:21:01;;;;;;;18.50;13.40;;;;;;;;;;5116674;28;20446;-74
2021/05/30 00:23:28;;;;;;;15.80;11.67;;;;;;;;;;5116814;28;20438;-74
2021/05/30 00:25:54;;;;;;;14.23;12.67;;;;;;;;;;5116846;28;20490;-74
2021/05/30 00:28:21;;;;;;;13.20;11.80;;;;;;;;;;5116542;28;20442;-73
2021/05/30 00:30:48;;;;;;;16.93;13.53;;;;;;;;;;5116489;28;20773;-73
2021/05/30 00:33:15;;;;;;;14.60;12.60;;;;;;;;;;5116429;28;20441;-73
2021/05/30 00:35:42;;;;;;;15.67;12.07;;;;;;;;;;5116158;28;20499;-73
2021/05/30 00:38:09;;;;;;;14.10;12.60;;;;;;;;;;5116212;28;20452;-73
2021/05/30 00:40:36;;;;;;;18.57;12.50;;;;;;;;;;5116619;28;20442;-73
2021/05/30 00:43:03;;;;;;;14.10;12.70;;;;;;;;;;5116259;28;20435;-73
2021/05/30 00:45:29;;;;;;;17.03;12.47;;;;;;;;;;5115846;28;20531;-73
2021/05/30 00:47:56;;;;;;;15.33;13.73;;;;;;;;;;5116182;28;20449;-73
2021/05/30 00:50:23;;;;;;;15.40;13.85;;;;;;;;;;5116310;28;20434;-73
2021/05/30 00:52:50;;;;;;;20.43;14.17;;;;;;;;;;5116205;28;20604;-73
2021/05/30 00:55:17;;;;;;;15.43;13.80;;;;;;;;;;5115747;28;20950;-72
2021/05/30 00:57:44;;;;;;;15.70;12.90;;;;;;;;;;5115949;28;20199;-72
2021/05/30 01:00:12;;;;;;;17.88;12.82;;;;;;;;;;5115921;28;20450;-73
2021/05/30 01:02:39;;;;;;;17.33;14.48;;;;;;;;;;5115857;28;20280;-72
2021/05/30 01:05:08;;;;;;;15.25;13.57;;;;;;;;;;5115597;28;20223;-71
2021/05/30 01:07:40;;;;;;;17.13;13.27;;;;;;;;;;5115576;28;20272;-72
2021/05/30 01:10:18;;;;;;;16.60;13.97;;;;;;;;;;5115803;28;20256;-72
2021/05/30 01:12:45;;;;;;;20.20;12.57;;;;;;;;;;5115741;28;20478;-72
2021/05/30 01:15:13;;;;;;;18.50;15.15;;;;;;;;;;5115384;28;20463;-73
2021/05/30 01:17:39;;;;;;;15.83;12.87;;;;;;;;;;5115075;28;20193;-72
2021/05/30 01:20:09;;;;;;;17.40;14.70;;;;;;;;;;5115384;28;20443;-72
2021/05/30 01:22:36;;;;;;;17.67;14.13;;;;;;;;;;5115242;28;20441;-72
2021/05/30 01:25:04;;;;;;;17.23;13.93;;;;;;;;;;5114793;28;20453;-73
2021/05/30 01:27:31;;;;;;;14.70;13.10;;;;;;;;;;5115989;28;20542;-73
2021/05/30 01:29:57;;;;;;;21.50;14.00;;;;;;;;;;5115107;28;20437;-72
2021/05/30 01:32:24;;;;;;;16.87;14.07;;;;;;;;;;5114782;28;20200;-72
2021/05/30 01:34:51;;;;;;;16.53;14.63;;;;;;;;;;5115161;28;20449;-72
2021/05/30 01:37:18;;;;;;;20.10;15.80;;;;;;;;;;5114859;28;20488;-72
2021/05/30 01:39:44;;;;;;;26.40;18.60;;;;;;;;;;5115445;28;20820;-74
2021/05/30 01:42:12;;;;;;;18.40;14.30;;;;;;;;;;5114973;28;20195;-72
2021/05/30 01:44:39;;;;;;;21.90;17.10;;;;;;;;;;5115325;28;20438;-72
2021/05/30 01:47:05;;;;;;;18.42;15.57;;;;;;;;;;5114414;28;20222;-72
2021/05/30 01:49:32;;;;;;;20.60;15.35;;;;;;;;;;5114842;28;20200;-72
2021/05/30 01:51:59;;;;;;;17.60;15.70;;;;;;;;;;5113841;28;20286;-72
2021/05/30 01:54:27;;;;;;;20.73;15.68;;;;;;;;;;5114333;28;20455;-72
2021/05/30 01:56:57;;;;;;;21.27;15.73;;;;;;;;;;5114255;28;20196;-71
2021/05/30 01:59:24;;;;;;;20.85;15.75;;;;;;;;;;5114532;28;20443;-72
2021/05/30 02:01:52;;;;;;;22.65;16.88;;;;;;;;;;5114169;28;20232;-72
2021/05/30 02:04:21;;;;;;;18.27;14.82;;;;;;;;;;5114382;28;20218;-73
2021/05/30 02:06:49;;;;;;;22.30;16.42;;;;;;;;;;5113965;28;20210;-73
2021/05/30 02:09:16;;;;;;;20.77;14.63;;;;;;;;;;5114034;28;20202;-74
2021/05/30 02:11:43;;;;;;;21.43;16.63;;;;;;;;;;5114769;28;20192;-74
2021/05/30 02:14:10;;;;;;;20.35;16.20;;;;;;;;;;5114277;28;20777;-73
2021/05/30 02:16:39;;;;;;;18.83;16.42;;;;;;;;;;5113932;28;20199;-73
2021/05/30 02:19:05;;;;;;;20.20;15.27;;;;;;;;;;5114174;28;20293;-73
2021/05/30 02:21:38;;;;;;;19.45;15.65;;;;;;;;;;5113504;28;20288;-73
2021/05/30 02:24:06;;;;;;;18.98;15.50;;;;;;;;;;5114545;28;20640;-73
2021/05/30 02:26:32;;;;;;;26.23;17.70;;;;;;;;;;5114436;28;20577;-73
2021/05/30 02:28:59;;;;;;;21.92;16.20;;;;;;;;;;5114593;28;20195;-72
2021/05/30 02:31:26;;;;;;;21.02;15.80;;;;;;;;;;5113748;28;20198;-73
2021/05/30 02:33:53;;;;;;;21.15;16.00;;;;;;;;;;5114440;28;20205;-73
2021/05/30 02:36:20;;;;;;;21.63;16.60;;;;;;;;;;5114470;28;20554;-73
2021/05/30 02:38:47;;;;;;;22.35;14.98;;;;;;;;;;5113486;28;20287;-73
2021/05/30 02:41:13;;;;;;;22.98;16.77;;;;;;;;;;5113548;28;20198;-73
2021/05/30 02:43:40;;;;;;;21.05;15.38;;;;;;;;;;5113628;28;20199;-74
2021/05/30 02:46:07;;;;;;;18.95;16.60;;;;;;;;;;5114392;28;20276;-74
2021/05/30 02:48:35;;;;;;;22.48;16.20;;;;;;;;;;5113681;28;20194;-74
2021/05/30 02:51:03;;;;;;;20.00;16.27;;;;;;;;;;5113520;28;20230;-73
2021/05/30 02:53:32;;;;;;;22.08;17.30;;;;;;;;;;5113408;28;20712;-74
2021/05/30 02:55:59;;;;;;;22.15;16.30;;;;;;;;;;5113675;28;20194;-74
2021/05/30 02:58:26;;;;;;;22.15;17.05;;;;;;;;;;5113715;28;20589;-74
2021/05/30 03:00:53;;;;;;;21.58;15.73;;;;;;;;;;5113670;28;20567;-73
2021/05/30 03:03:20;;;;;;;21.40;17.10;;;;;;;;;;5113645;28;20565;-72
2021/05/30 03:05:47;;;;;;;23.13;16.70;;;;;;;;;;5113149;28;20306;-72
2021/05/30 03:08:14;;;;;;;23.10;16.10;;;;;;;;;;5113250;28;20282;-72
2021/05/30 03:10:41;;;;;;;25.60;16.65;;;;;;;;;;5113813;28;20200;-73
2021/05/30 03:13:08;;;;;;;22.90;17.20;;;;;;;;;;5113278;28;20195;-73
2021/05/30 03:15:35;;;;;;;25.88;16.73;;;;;;;;;;5113731;28;20224;-73
2021/05/30 03:18:02;;;;;;;26.50;16.25;;;;;;;;;;5113568;28;20196;-72
2021/05/30 03:20:29;;;;;;;24.70;17.08;;;;;;;;;;5113197;28;20290;-73
2021/05/30 03:22:55;;;;;;;22.92;17.10;;;;;;;;;;5113126;28;20197;-73
2021/05/30 03:25:23;;;;;;;26.27;17.55;;;;;;;;;;5112870;28;20225;-71
2021/05/30 03:27:50;;;;;;;22.10;18.05;;;;;;;;;;5113523;28;20196;-72
2021/05/30 03:30:17;;;;;;;25.17;16.58;;;;;;;;;;5113547;28;20285;-72
2021/05/30 03:32:44;;;;;;;20.70;16.80;;;;;;;;;;5115209;28;20282;-72
2021/05/30 03:35:11;;;;;;;27.42;16.48;;;;;;;;;;5117977;28;20532;-73
2021/05/30 03:37:38;;;;;;;27.15;16.65;;;;;;;;;;5117278;28;20279;-72
2021/05/30 03:40:11;;;;;;;21.85;15.90;;;;;;;;;;5116886;28;20209;-72
2021/05/30 03:42:47;;;;;;;19.40;16.35;;;;;;;;;;5117577;28;20652;-72
2021/05/30 03:45:14;;;;;;;20.85;16.50;;;;;;;;;;5117317;28;20193;-72
2021/05/30 03:47:40;;;;;;;22.85;16.92;;;;;;;;;;5117534;28;20221;-73
2021/05/30 03:50:08;;;;;;;25.35;15.50;;;;;;;;;;5116711;28;20285;-73
2021/05/30 03:52:35;;;;;;;19.02;15.25;;;;;;;;;;5117283;28;20200;-73
2021/05/30 03:55:01;;;;;;;26.25;17.77;;;;;;;;;;5116935;28;20198;-73
2021/05/30 03:57:28;;;;;;;22.60;17.40;;;;;;;;;;5116974;28;20204;-73
2021/05/30 03:59:56;;;;;;;24.33;18.40;;;;;;;;;;5116942;28;20275;-72
2021/05/30 04:02:22;;;;;;;22.55;16.90;;;;;;;;;;5116305;28;20205;-72
2021/05/30 04:04:49;;;;;;;21.83;17.15;;;;;;;;;;5116754;28;20206;-72
2021/05/30 04:07:16;;;;;;;23.60;16.13;;;;;;;;;;5116688;28;20257;-72
2021/05/30 04:09:42;;;;;;;23.25;18.30;;;;;;;;;;5117050;28;20560;-72
2021/05/30 04:12:09;;;;;;;25.17;18.02;;;;;;;;;;5116699;28;20228;-77
2021/05/30 04:14:36;;;;;;;24.13;16.90;;;;;;;;;;5116250;28;20212;-73
2021/05/30 04:17:04;;;;;;;20.23;16.00;;;;;;;;;;5116218;28;20265;-73
2021/05/30 04:19:30;;;;;;;24.90;17.35;;;;;;;;;;5116147;28;20192;-72
2021/05/30 04:21:57;;;;;;;20.70;16.63;;;;;;;;;;5116405;28;20194;-72
2021/05/30 04:24:24;;;;;;;24.08;16.58;;;;;;;;;;5116407;28;20198;-71
2021/05/30 04:26:50;;;;;;;24.63;17.83;;;;;;;;;;5125542;27;20738;-72
2021/05/30 04:29:17;;;;;;;23.08;17.13;;;;;;;;;;5116277;28;20198;-72
2021/05/30 04:31:44;;;;;;;23.17;16.30;;;;;;;;;;5115963;28;20732;-72
2021/05/30 04:34:11;;;;;;;21.85;16.48;;;;;;;;;;5116253;28;20197;-72
2021/05/30 04:36:38;;;;;;;24.67;16.10;;;;;;;;;;5116002;28;20210;-72
2021/05/30 04:39:05;;;;;;;24.73;17.40;;;;;;;;;;5116245;28;20200;-72
2021/05/30 04:41:32;;;;;;;22.42;16.50;;;;;;;;;;5116013;28;20247;-72
2021/05/30 04:43:58;;;;;;;19.15;14.55;;;;;;;;;;5115313;28;20260;-72
2021/05/30 04:46:25;;;;;;;22.60;15.85;;;;;;;;;;5115782;28;20215;-72
2021/05/30 04:48:52;;;;;;;27.75;16.88;;;;;;;;;;5115853;28;20201;-72
2021/05/30 04:51:19;;;;;;;21.98;16.50;;;;;;;;;;5115750;28;20202;-72
2021/05/30 04:53:46;;;;;;;22.73;16.70;;;;;;;;;;5115655;28;20231;-72
2021/05/30 04:56:17;;;;;;;22.50;16.80;;;;;;;;;;5115798;28;20226;-72
2021/05/30 04:58:44;;;;;;;23.15;16.48;;;;;;;;;;5116093;28;20541;-73
2021/05/30 05:01:11;;;;;;;20.08;14.98;;;;;;;;;;5115780;28;20348;-73
2021/05/30 05:03:38;;;;;;;20.37;16.43;;;;;;;;;;5115283;28;20285;-72
2021/05/30 05:06:05;;;;;;;19.73;14.63;;;;;;;;;;5115201;28;20477;-72
2021/05/30 05:08:32;;;;;;;24.73;17.80;;;;;;;;;;5115719;28;20446;-72
2021/05/30 05:10:59;;;;;;;21.50;15.53;;;;;;;;;;5115148;28;20450;-72
2021/05/30 05:13:26;;;;;;;19.03;15.13;;;;;;;;;;5115529;28;20434;-73
2021/05/30 05:15:53;;;;;;;21.80;15.50;;;;;;;;;;5115338;28;20446;-72
2021/05/30 05:18:20;;;;;;;19.30;15.80;;;;;;;;;;5115282;28;20200;-73
2021/05/30 05:20:48;;;;;;;21.30;15.40;;;;;;;;;;5115226;28;20437;-72
2021/05/30 05:23:15;;;;;;;22.43;15.60;;;;;;;;;;5115130;28;20433;-73
2021/05/30 05:25:42;;;;;;;21.70;15.80;;;;;;;;;;5114599;28;20572;-72
2021/05/30 05:28:09;;;;;;;19.98;15.23;;;;;;;;;;5114861;28;20495;-73
2021/05/30 05:30:36;;;;;;;21.70;14.67;;;;;;;;;;5114712;28;20203;-72
2021/05/30 05:33:03;;;;;;;22.95;16.02;;;;;;;;;;5114796;28;20489;-72
2021/05/30 05:35:30;;;;;;;19.33;14.43;;;;;;;;;;5114986;28;20214;-73
2021/05/30 05:37:57;;;;;;;21.30;15.87;;;;;;;;;;5115165;28;20358;-72
2021/05/30 05:40:24;;;;;;;20.97;16.30;;;;;;;;;;5115235;28;20441;-73
2021/05/30 05:42:52;;;;;;;22.40;15.03;;;;;;;;;;5114994;28;20518;-71
2021/05/30 05:45:19;;;;;;;24.73;16.30;;;;;;;;;;5114743;28;20445;-72
2021/05/30 05:47:46;;;;;;;23.87;16.83;;;;;;;;;;5114965;28;20442;-72
2021/05/30 05:50:14;;;;;;;21.47;14.70;;;;;;;;;;5114623;28;20943;-72
2021/05/30 05:52:41;;;;;;;23.00;15.67;;;;;;;;;;5114951;28;20433;-71
2021/05/30 05:55:09;;;;;;;22.23;15.60;;;;;;;;;;5114149;28;20842;-73
2021/05/30 05:57:35;;;;;;;20.10;16.63;;;;;;;;;;5114270;28;20472;-72
2021/05/30 06:00:04;;;;;;;18.95;16.40;;;;;;;;;;5114343;28;20555;-72
2021/05/30 06:02:31;;;;;;;19.80;14.93;;;;;;;;;;5114912;28;20199;-72
2021/05/30 06:04:58;;;;;;;18.83;15.20;;;;;;;;;;5114715;28;20454;-72
2021/05/30 06:07:24;;;;;;;26.33;18.17;;;;;;;;;;5114639;28;20564;-72
2021/05/30 06:09:51;;;;;;;21.10;16.37;;;;;;;;;;5114308;28;20442;-72
2021/05/30 06:12:18;;;;;;;20.23;15.30;;;;;;;;;;5114267;28;20439;-72
2021/05/30 06:14:45;;;;;;;19.40;16.07;;;;;;;;;;5114505;28;20438;-72
2021/05/30 06:17:12;;;;;;;25.20;17.37;;;;;;;;;;5114083;28;20472;-72
2021/05/30 06:19:39;;;;;;;20.37;16.23;;;;;;;;;;5114078;28;20433;-72
2021/05/30 06:22:07;;;;;;;22.47;17.27;;;;;;;;;;5114367;28;20448;-73
2021/05/30 06:24:34;;;;;;;23.43;15.83;;;;;;;;;;5114335;28;20446;-72
2021/05/30 06:27:01;;;;;;;23.50;17.93;;;;;;;;;;5114021;28;20497;-73
2021/05/30 06:29:28;;;;;;;26.30;17.60;;;;;;;;;;5114333;28;20447;-73
2021/05/30 06:31:56;;;;;;;23.20;17.53;;;;;;;;;;5113910;28;20442;-73
2021/05/30 06:34:23;;;;;;;22.63;18.90;;;;;;;;;;5113818;28;21012;-73
2021/05/30 06:36:52;;;;;;;22.33;17.93;;;;;;;;;;5113263;28;20450;-73
2021/05/30 06:39:19;;;;;;;18.50;16.57;;;;;;;;;;5114063;28;20443;-72
2021/05/30 06:41:46;;;;;;;21.07;15.60;;;;;;;;;;5114104;28;20453;-75
2021/05/30 06:44:12;;;;;;;20.07;15.83;;;;;;;;;;5113924;28;20450;-73
2021/05/30 06:46:39;;;;;;;18.43;15.70;;;;;;;;;;5113979;28;20543;-73
2021/05/30 06:49:06;;;;;;;19.20;15.37;;;;;;;;;;5113960;28;20437;-72
2021/05/30 06:51:34;;;;;;;21.77;14.33;;;;;;;;;;5113966;28;20537;-73
2021/05/30 06:54:02;;;;;;;19.57;14.27;;;;;;;;;;5113623;28;20530;-72
2021/05/30 06:56:28;;;;;;;19.70;15.57;;;;;;;;;;5113933;28;20809;-74
2021/05/30 06:58:55;;;;;;;20.50;15.50;;;;;;;;;;5113565;28;20449;-73
2021/05/30 07:01:22;;;;;;;29.73;16.00;;;;;;;;;;5114279;28;20457;-73
2021/05/30 07:03:49;;;;;;;18.47;13.83;;;;;;;;;;5113711;28;20449;-73
2021/05/30 07:06:16;;;;;;;18.60;14.87;;;;;;;;;;5113386;28;21042;-73
2021/05/30 07:08:44;;;;;;;18.13;15.27;;;;;;;;;;5117130;28;20931;-73
2021/05/30 07:11:12;;;;;;;16.50;13.87;;;;;;;;;;5117668;28;20444;-73
2021/05/30 07:13:39;;;;;;;15.50;13.87;;;;;;;;;;5117606;28;20516;-74
2021/05/30 07:16:05;;;;;;;16.93;14.67;;;;;;;;;;5118191;28;20445;-74
2021/05/30 07:18:32;;;;;;;15.77;12.53;;;;;;;;;;5118121;28;20518;-73
2021/05/30 07:21:00;;;;;;;21.87;13.47;;;;;;;;;;5117782;28;20447;-75
2021/05/30 07:23:27;;;;;;;20.73;12.50;;;;;;;;;;5117606;28;20520;-74
2021/05/30 07:25:55;;;;;;;15.30;12.33;;;;;;;;;;5117626;28;20482;-74
2021/05/30 07:28:22;;;;;;;16.50;12.50;;;;;;;;;;5117431;28;20476;-75
2021/05/30 07:30:49;;;;;;;13.00;11.63;;;;;;;;;;5117242;28;20442;-74
2021/05/30 07:33:15;;;;;;;13.27;11.87;;;;;;;;;;5117256;28;20530;-74
2021/05/30 07:35:42;;;;;;;12.07;10.70;;;;;;;;;;5117271;28;20869;-74
2021/05/30 07:38:09;;;;;;;12.73;10.60;;;;;;;;;;5118193;28;20850;-73
2021/05/30 07:40:36;;;;;;;15.63;11.23;;;;;;;;;;5117913;28;20492;-73
2021/05/30 07:43:04;;;;;;;14.30;12.30;;;;;;;;;;5117022;28;20439;-73
2021/05/30 07:45:30;;;;;;;10.87;9.40;;;;;;;;;;5116926;28;20540;-76
2021/05/30 07:47:57;;;;;;;12.57;10.47;;;;;;;;;;5116846;28;20444;-73
2021/05/30 07:50:24;;;;;;;12.83;10.07;;;;;;;;;;5116708;28;20925;-74
2021/05/30 07:52:51;;;;;;;12.93;9.73;;;;;;;;;;5117494;28;20439;-73
2021/05/30 07:55:18;;;;;;;11.80;9.33;;;;;;;;;;5116963;28;20439;-74
2021/05/30 07:57:46;;;;;;;12.23;10.10;;;;;;;;;;5117301;28;21024;-73
2021/05/30 08:00:15;;;;;;;11.60;10.43;;;;;;;;;;5116710;28;21051;-74
2021/05/30 08:02:42;;;;;;;13.07;10.93;;;;;;;;;;5116899;28;20454;-75
2021/05/30 08:05:11;;;;;;;12.70;10.27;;;;;;;;;;5117139;28;20471;-74
2021/05/30 08:07:37;;;;;;;10.00;9.00;;;;;;;;;;5116923;28;20480;-73
2021/05/30 08:10:05;;;;;;;10.47;8.87;;;;;;;;;;5116611;28;20451;-74
2021/05/30 08:12:31;;;;;;;12.83;10.40;;;;;;;;;;5116507;28;20431;-74
2021/05/30 08:14:58;;;;;;;13.77;10.00;;;;;;;;;;5117451;28;20439;-73
2021/05/30 08:17:26;;;;;;;11.13;8.93;;;;;;;;;;5116420;28;20440;-72
2021/05/30 08:19:53;;;;;;;9.63;8.57;;;;;;;;;;5122284;27;20503;-74
2021/05/30 08:22:19;;;;;;;9.80;7.50;;;;;;;;;;5136965;27;20437;-73
2021/05/30 08:24:47;;;;;;;11.23;7.40;;;;;;;;;;5136752;27;20989;-73
2021/05/30 08:27:14;;;;;;;7.87;7.00;;;;;;;;;;5137232;27;20482;-73
2021/05/30 08:29:41;;;;;;;9.67;8.20;;;;;;;;;;5136665;27;20438;-73
2021/05/30 08:32:08;;;;;;;11.27;8.70;;;;;;;;;;5137018;27;20532;-72
2021/05/30 08:34:36;;;;;;;12.83;9.43;;;;;;;;;;5137303;27;20776;-73
2021/05/30 08:37:03;;;;;;;9.10;7.43;;;;;;;;;;5137317;27;20941;-72
2021/05/30 08:39:29;;;;;;;10.53;7.70;;;;;;;;;;5137212;27;20546;-72
2021/05/30 08:41:57;;;;;;;8.53;7.63;;;;;;;;;;5136858;27;20529;-72
2021/05/30 08:44:24;;;;;;;10.40;8.60;;;;;;;;;;5136409;27;20442;-73
2021/05/30 08:46:50;;;;;;;8.37;7.10;;;;;;;;;;5136727;27;20467;-74
2021/05/30 08:49:17;;;;;;;9.27;8.37;;;;;;;;;;5120519;27;20443;-73
2021/05/30 08:51:45;;;;;;;11.30;8.37;;;;;;;;;;5116653;28;20529;-73
2021/05/30 08:54:13;;;;;;;11.73;8.00;;;;;;;;;;5115946;28;20436;-72
2021/05/30 08:56:41;;;;;;;10.37;9.20;;;;;;;;;;5115922;28;20475;-73
2021/05/30 08:59:15;;;;;;;10.57;8.77;;;;;;;;;;5116271;28;20445;-73
2021/05/30 09:01:43;;;;;;;13.67;8.90;;;;;;;;;;5115687;28;20439;-72
2021/05/30 09:04:12;;;;;;;12.40;10.47;;;;;;;;;;5115796;28;20495;-72
2021/05/30 09:06:40;;;;;;;9.20;7.97;;;;;;;;;;5115938;28;20626;-74
2021/05/30 09:09:08;;;;;;;9.50;8.27;;;;;;;;;;5115656;28;20443;-73
2021/05/30 09:11:52;;;;;;;8.13;7.20;;;;;;;;;;5116101;28;20439;-73
2021/05/30 09:14:22;;;;;;;9.83;8.13;;;;;;;;;;5115913;28;20419;-73
2021/05/30 09:16:50;;;;;;;10.57;9.27;;;;;;;;;;5115521;28;20455;-73
2021/05/30 09:19:30;;;;;;;8.30;6.77;;;;;;;;;;5115106;28;20793;-74
2021/05/30 09:22:14;;;;;;;8.83;6.90;;;;;;;;;;5115282;28;20530;-74
2021/05/30 09:24:42;;;;;;;7.93;6.97;;;;;;;;;;5115296;28;20836;-74
2021/05/30 09:27:09;;;;;;;7.87;7.07;;;;;;;;;;5115096;28;20488;-74
2021/05/30 09:29:36;;;;;;;7.77;6.97;;;;;;;;;;5115122;28;20546;-73
2021/05/30 09:32:03;;;;;;;7.63;6.80;;;;;;;;;;5114846;28;20438;-73
2021/05/30 09:34:31;;;;;;;6.43;5.80;;;;;;;;;;5115249;28;20811;-73
2021/05/30 09:36:59;;;;;;;5.13;4.67;;;;;;;;;;5115191;28;20450;-73
2021/05/30 09:39:35;;;;;;;6.53;5.87;;;;;;;;;;5114976;28;20880;-73
2021/05/30 09:42:17;;;;;;;9.43;6.37;;;;;;;;;;5114866;28;20556;-74
2021/05/30 09:44:54;;;;;;;9.40;6.27;;;;;;;;;;5114272;28;20904;-73
2021/05/30 09:47:33;;;;;;;7.30;6.13;;;;;;;;;;5114894;28;20466;-72
2021/05/30 09:50:00;;;;;;;7.07;6.03;;;;;;;;;;5114631;28;20508;-72
2021/05/30 09:52:39;;;;;;;7.00;5.90;;;;;;;;;;5114797;28;20522;-74
2021/05/30 09:55:12;;;;;;;7.80;6.97;;;;;;;;;;5114443;28;20434;-74
2021/05/30 09:57:39;;;;;;;8.13;5.47;;;;;;;;;;5114439;28;20496;-73
2021/05/30 10:00:15;;;;;;;6.77;5.70;;;;;;;;;;5114355;28;20521;-74
2021/05/30 10:02:42;;;;;;;6.60;6.00;;;;;;;;;;5114364;28;20430;-73
2021/05/30 10:05:09;;;;;;;7.93;7.13;;;;;;;;;;5114613;28;20445;-73
2021/05/30 10:07:36;;;;;;;7.00;6.30;;;;;;;;;;5115086;28;20495;-74
2021/05/30 10:10:03;;;;;;;7.97;5.33;;;;;;;;;;5114071;28;20454;-72
2021/05/30 10:12:30;;;;;;;12.33;5.37;;;;;;;;;;5114452;28;20442;-73
2021/05/30 10:14:56;;;;;;;7.17;5.20;;;;;;;;;;5114767;28;20458;-73
2021/05/30 10:17:24;;;;;;;6.63;4.90;;;;;;;;;;5114326;28;20434;-73
2021/05/30 10:19:52;;;;;;;5.43;4.93;;;;;;;;;;5113916;28;20481;-73
2021/05/30 10:22:19;;;;;;;7.10;5.40;;;;;;;;;;5114324;28;20437;-73
2021/05/30 10:24:46;;;;;;;5.40;4.90;;;;;;;;;;5114202;28;20492;-73
2021/05/30 10:27:15;;;;;;;6.53;5.63;;;;;;;;;;5113632;28;20921;-73
2021/05/30 10:29:42;;;;;;;5.03;4.60;;;;;;;;;;5113821;28;20530;-73
2021/05/30 10:32:16;;;;;;;4.50;4.10;;;;;;;;;;5114065;28;20439;-73
2021/05/30 10:35:08;;;;;;;5.20;4.70;;;;;;;;;;5114571;28;20427;-73
2021/05/30 10:37:40;;;;;;;8.83;5.57;;;;;;;;;;5113759;28;20443;-72
2021/05/30 10:40:22;;;;;;;6.83;5.20;;;;;;;;;;5114415;28;20427;-73
2021/05/30 10:43:13;;;;;;;7.93;5.90;;;;;;;;;;5113711;28;20511;-74
2021/05/30 10:45:55;;;;;;;5.97;5.47;;;;;;;;;;5114513;28;20477;-73
2021/05/30 10:48:22;;;;;;;6.20;5.10;;;;;;;;;;5114510;28;20434;-75
2021/05/30 10:50:56;;;;;;;8.70;5.30;;;;;;;;;;5113542;28;20435;-73
2021/05/30 10:53:33;;;;;;;6.20;5.60;;;;;;;;;;5113947;28;20797;-73
2021/05/30 10:56:21;;;;;;;5.97;5.33;;;;;;;;;;5113934;28;20435;-72
2021/05/30 10:59:02;;;;;;;7.40;5.87;;;;;;;;;;5114186;28;20793;-74
2021/05/30 11:01:44;;;;;;;5.63;5.13;;;;;;;;;;5112983;28;20975;-73
2021/05/30 11:04:35;;;;;;;6.43;5.83;;;;;;;;;;5113808;28;20470;-74
2021/05/30 11:07:04;;;;;;;7.13;5.40;;;;;;;;;;5093567;28;20542;-73
2021/05/30 11:09:49;;;;;;;5.90;5.37;;;;;;;;;;5114180;28;20532;-73
2021/05/30 11:12:19;;;;;;;6.37;5.50;;;;;;;;;;5113527;28;20445;-73
2021/05/30 11:15:01;;;;;;;6.27;5.67;;;;;;;;;;5113768;28;20466;-74
2021/05/30 11:17:35;;;;;;;8.23;4.47;;;;;;;;;;5112686;28;20453;-72
2021/05/30 11:20:02;;;;;;;4.93;4.43;;;;;;;;;;5113775;28;20437;-73
2021/05/30 11:22:39;;;;;;;7.93;4.90;;;;;;;;;;5113709;28;20547;-73
2021/05/30 11:25:07;;;;;;;4.50;4.10;;;;;;;;;;5113587;28;20426;-74
2021/05/30 11:27:48;;;;;;;6.73;4.80;;;;;;;;;;5113284;28;21001;-73
2021/05/30 11:30:34;;;;;;;5.40;4.90;;;;;;;;;;5113577;28;20484;-72
2021/05/30 11:33:01;;;;;;;5.00;4.60;;;;;;;;;;5113540;28;20455;-72
2021/05/30 11:35:28;;;;;;;4.70;3.93;;;;;;;;;;5114029;28;20470;-73
2021/05/30 11:37:56;;;;;;;4.30;3.90;;;;;;;;;;5113196;28;20447;-74
2021/05/30 11:40:23;;;;;;;6.67;3.80;;;;;;;;;;5113261;28;20538;-73
2021/05/30 11:42:50;;;;;;;5.53;3.90;;;;;;;;;;5112979;28;20451;-72
2021/05/30 11:45:32;;;;;;;5.70;4.03;;;;;;;;;;5112510;28;20439;-73
2021/05/30 11:48:03;;;;;;;7.20;4.37;;;;;;;;;;5112997;28;20486;-73
2021/05/30 11:50:31;;;;;;;3.90;3.60;;;;;;;;;;5112435;28;20439;-73
2021/05/30 11:52:58;;;;;;;3.87;3.30;;;;;;;;;;5112909;28;20439;-73
2021/05/30 11:55:25;;;;;;;3.30;3.00;;;;;;;;;;5116516;28;20440;-73
2021/05/30 11:57:52;;;;;;;3.40;3.20;;;;;;;;;;5116879;28;20445;-73
2021/05/30 12:00:19;;;;;;;4.00;3.60;;;;;;;;;;5116195;28;20535;-73
2021/05/30 12:02:46;;;;;;;7.10;4.27;;;;;;;;;;5117380;28;20450;-73
2021/05/30 12:05:14;;;;;;;3.20;2.93;;;;;;;;;;5116816;28;20443;-73
2021/05/30 12:07:40;;;;;;;5.80;3.80;;;;;;;;;;5116638;28;20820;-73
2021/05/30 12:10:09;;;;;;;3.77;3.17;;;;;;;;;;5116338;28;20466;-73
2021/05/30 12:12:37;;;;;;;3.23;3.00;;;;;;;;;;5116513;28;21004;-74
2021/05/30 12:15:08;;;;;;;5.77;3.60;;;;;;;;;;5116350;28;20524;-75
2021/05/30 12:17:35;;;;;;;4.77;4.37;;;;;;;;;;5116467;28;20484;-73
2021/05/30 12:20:02;;;;;;;3.60;3.40;;;;;;;;;;5115906;28;20437;-73
2021/05/30 12:22:30;;;;;;;2.70;2.50;;;;;;;;;;5115889;28;20984;-73
2021/05/30 12:24:57;;;;;;;3.40;3.10;;;;;;;;;;5115991;28;20440;-73
2021/05/30 12:27:25;;;;;;;2.90;2.70;;;;;;;;;;5115599;28;20846;-73
2021/05/30 12:29:52;;;;;;;5.70;3.70;;;;;;;;;;5115957;28;20437;-74
2021/05/30 12:32:20;;;;;;;3.17;2.87;;;;;;;;;;5125502;27;20535;-74
2021/05/30 12:34:49;;;;;;;4.17;3.70;;;;;;;;;;5115402;27;20979;-73
2021/05/30 12:37:16;;;;;;;6.60;3.50;;;;;;;;;;5126918;27;20528;-74
2021/05/30 12:39:43;;;;;;;3.40;3.10;;;;;;;;;;5115450;28;20439;-76
2021/05/30 12:42:11;;;;;;;3.10;2.90;;;;;;;;;;5115221;28;20829;-76
2021/05/30 12:44:40;;;;;;;5.17;3.30;;;;;;;;;;5114920;28;20439;-76
2021/05/30 12:47:09;;;;;;;3.50;3.20;;;;;;;;;;5115177;28;20478;-75
2021/05/30 12:49:36;;;;;;;5.30;4.70;;;;;;;;;;5115464;28;20736;-75
2021/05/30 12:52:05;;;;;;;3.63;3.30;;;;;;;;;;5115835;28;20451;-75
2021/05/30 12:54:32;;;;;;;3.00;2.73;;;;;;;;;;5115678;28;20795;-73
2021/05/30 12:56:59;;;;;;;3.60;3.27;;;;;;;;;;5115760;28;20995;-72
2021/05/30 12:59:27;;;;;;;3.37;3.13;;;;;;;;;;5115651;28;20525;-74
2021/05/30 13:01:56;;;;;;;3.37;3.07;;;;;;;;;;5115740;28;20935;-73
2021/05/30 13:04:25;;;;;;;3.57;3.27;;;;;;;;;;5115696;28;20435;-73
2021/05/30 13:07:01;;;;;;;3.67;3.27;;;;;;;;;;5115338;28;20567;-73
2021/05/30 13:09:29;;;;;;;3.70;3.40;;;;;;;;;;5115440;28;20434;-74
2021/05/30 13:11:56;;;;;;;3.37;3.07;;;;;;;;;;5115291;28;20526;-75
2021/05/30 13:14:30;;;;;;;5.27;3.77;;;;;;;;;;5114812;28;20595;-74
2021/05/30 13:17:23;;;;;;;4.40;3.90;;;;;;;;;;5115230;28;20851;-74
2021/05/30 13:20:00;;;;;;;4.20;3.80;;;;;;;;;;5067417;28;20445;-74
2021/05/30 13:22:27;;;;;;;4.90;3.70;;;;;;;;;;5114760;28;20934;-74
2021/05/30 13:24:53;;;;;;;4.20;3.47;;;;;;;;;;5115062;28;20453;-74
2021/05/30 13:27:24;;;;;;;4.60;3.90;;;;;;;;;;5114579;28;20507;-74
2021/05/30 13:30:10;;;;;;;4.97;4.20;;;;;;;;;;5115136;28;20638;-74
2021/05/30 13:32:37;;;;;;;3.90;3.50;;;;;;;;;;5114704;28;20430;-74
2021/05/30 13:35:05;;;;;;;5.17;3.63;;;;;;;;;;5114850;28;20437;-74
2021/05/30 13:37:32;;;;;;;5.20;3.97;;;;;;;;;;5114945;28;20451;-73
2021/05/30 13:40:00;;;;;;;6.47;4.73;;;;;;;;;;5114407;28;20442;-74
2021/05/30 13:42:27;;;;;;;3.57;3.10;;;;;;;;;;5114243;28;20531;-73
2021/05/30 13:44:53;;;;;;;4.93;3.60;;;;;;;;;;5114537;28;20446;-73
2021/05/30 13:47:22;;;;;;;4.37;3.97;;;;;;;;;;5114581;28;20471;-74
2021/05/30 13:49:55;;;;;;;5.43;4.33;;;;;;;;;;5114558;28;20442;-73
2021/05/30 13:52:23;;;;;;;4.40;3.63;;;;;;;;;;5113910;28;20643;-75
2021/05/30 13:54:49;;;;;;;5.30;3.93;;;;;;;;;;5114044;28;20441;-73
2021/05/30 13:57:17;;;;;;;5.53;4.73;;;;;;;;;;5114333;28;20478;-75
2021/05/30 13:59:44;;;;;;;6.90;4.43;;;;;;;;;;5114170;28;20442;-72
2021/05/30 14:02:11;;;;;;;4.10;3.80;;;;;;;;;;5113841;28;20513;-72
2021/05/30 14:04:37;;;;;;;3.80;3.50;;;;;;;;;;5114095;28;20436;-73
2021/05/30 14:07:04;;;;;;;3.80;3.47;;;;;;;;;;5113843;28;20579;-73
2021/05/30 14:09:32;;;;;;;5.00;3.47;;;;;;;;;;5114155;28;20443;-74
2021/05/30 14:11:59;;;;;;;5.90;4.07;;;;;;;;;;5114257;28;20508;-74
2021/05/30 14:14:26;;;;;;;5.60;3.70;;;;;;;;;;5113749;28;21009;-74
2021/05/30 14:16:52;;;;;;;3.47;2.77;;;;;;;;;;5113394;28;20892;-73
2021/05/30 14:19:19;;;;;;;3.30;3.00;;;;;;;;;;5114104;28;20435;-74
2021/05/30 14:21:46;;;;;;;3.93;3.60;;;;;;;;;;5113699;28;20526;-74
2021/05/30 14:24:13;;;;;;;5.60;4.40;;;;;;;;;;5113964;28;20406;-74
2021/05/30 14:26:49;;;;;;;4.33;3.60;;;;;;;;;;5113828;28;20453;-74
2021/05/30 14:29:16;;;;;;;3.83;3.43;;;;;;;;;;5114139;28;20433;-74
2021/05/30 14:31:43;;;;;;;4.90;3.90;;;;;;;;;;5113839;28;20802;-74
2021/05/30 14:34:09;;;;;;;3.40;3.20;;;;;;;;;;5113692;28;20488;-75
2021/05/30 14:36:36;;;;;;;3.87;3.57;;;;;;;;;;5113649;28;20763;-73